sensor_id;sensor_type;location;lat;lon;timestamp;pressure;altitude;pressure_sealevel;temperature;humidity
40920;BME280;26652;50.280;19.026;2023-08-01T00:00:01;97551.72;;;20.50;68.60
40920;BME280;26652;50.280;19.026;2023-08-01T00:02:03;97565.09;;;20.67;68.68
40920;BME280;26652;50.280;19.026;2023-08-01T00:04:04;97546.75;;;20.64;67.47
40920;BME280;26652;50.280;19.026;2023-08-01T00:06:05;97546.00;;;20.58;68.23
40920;BME280;26652;50.280;19.026;2023-08-01T00:08:05;97552.44;;;20.66;68.08
40920;BME280;26652;50.280;19.026;2023-08-01T00:10:06;97558.91;;;20.68;67.46
40920;BME280;26652;50.280;19.026;2023-08-01T00:12:07;97547.28;;;20.66;67.81
40920;BME280;26652;50.280;19.026;2023-08-01T00:14:08;97567.88;;;20.81;67.44
40920;BME280;26652;50.280;19.026;2023-08-01T00:16:08;97550.34;;;20.73;67.55
40920;BME280;26652;50.280;19.026;2023-08-01T00:18:09;97541.34;;;20.55;67.86
40920;BME280;26652;50.280;19.026;2023-08-01T00:20:10;97549.88;;;20.55;67.79
40920;BME280;26652;50.280;19.026;2023-08-01T00:22:11;97562.25;;;20.69;67.37
40920;BME280;26652;50.280;19.026;2023-08-01T00:24:11;97558.91;;;20.68;67.44
40920;BME280;26652;50.280;19.026;2023-08-01T00:26:12;97548.81;;;20.67;67.52
40920;BME280;26652;50.280;19.026;2023-08-01T00:28:13;97550.38;;;20.68;67.34
40920;BME280;26652;50.280;19.026;2023-08-01T00:30:14;97541.84;;;20.67;66.80
40920;BME280;26652;50.280;19.026;2023-08-01T00:32:14;97530.75;;;20.56;67.04
40920;BME280;26652;50.280;19.026;2023-08-01T00:34:15;97535.34;;;20.70;67.26
40920;BME280;26652;50.280;19.026;2023-08-01T00:36:15;97549.25;;;20.84;67.00
40920;BME280;26652;50.280;19.026;2023-08-01T00:38:16;97532.00;;;20.69;66.38
40920;BME280;26652;50.280;19.026;2023-08-01T00:40:17;97543.09;;;20.75;65.79
40920;BME280;26652;50.280;19.026;2023-08-01T00:42:18;97532.72;;;20.80;65.80
40920;BME280;26652;50.280;19.026;2023-08-01T00:44:18;97525.78;;;20.75;66.24
40920;BME280;26652;50.280;19.026;2023-08-01T00:46:19;97520.84;;;20.74;65.90
40920;BME280;26652;50.280;19.026;2023-08-01T00:48:20;97512.56;;;20.77;65.75
40920;BME280;26652;50.280;19.026;2023-08-01T00:50:21;97512.03;;;20.80;65.65
40920;BME280;26652;50.280;19.026;2023-08-01T00:52:22;97500.16;;;20.74;65.31
40920;BME280;26652;50.280;19.026;2023-08-01T00:54:23;97498.34;;;20.74;66.42
40920;BME280;26652;50.280;19.026;2023-08-01T00:56:24;97505.31;;;20.79;65.11
40920;BME280;26652;50.280;19.026;2023-08-01T00:58:25;97499.91;;;20.75;65.55
40920;BME280;26652;50.280;19.026;2023-08-01T01:00:25;97499.66;;;20.72;65.23
40920;BME280;26652;50.280;19.026;2023-08-01T01:02:26;97493.44;;;20.73;66.02
40920;BME280;26652;50.280;19.026;2023-08-01T01:04:27;97474.59;;;20.67;65.44
40920;BME280;26652;50.280;19.026;2023-08-01T01:06:32;97491.53;;;20.88;65.43
40920;BME280;26652;50.280;19.026;2023-08-01T01:08:33;97475.13;;;20.64;65.80
40920;BME280;26652;50.280;19.026;2023-08-01T01:10:34;97486.19;;;20.75;66.09
40920;BME280;26652;50.280;19.026;2023-08-01T01:12:34;97461.91;;;20.71;66.15
40920;BME280;26652;50.280;19.026;2023-08-01T01:14:35;97470.94;;;20.73;65.39
40920;BME280;26652;50.280;19.026;2023-08-01T01:16:36;97450.84;;;20.60;65.84
40920;BME280;26652;50.280;19.026;2023-08-01T01:18:37;97447.00;;;20.52;66.17
40920;BME280;26652;50.280;19.026;2023-08-01T01:20:37;97443.63;;;20.52;66.16
40920;BME280;26652;50.280;19.026;2023-08-01T01:22:40;97451.41;;;20.47;66.32
40920;BME280;26652;50.280;19.026;2023-08-01T01:24:42;97441.03;;;20.52;66.40
40920;BME280;26652;50.280;19.026;2023-08-01T01:26:43;97421.72;;;20.39;65.75
40920;BME280;26652;50.280;19.026;2023-08-01T01:28:44;97434.84;;;20.53;65.63
40920;BME280;26652;50.280;19.026;2023-08-01T01:30:44;97432.97;;;20.64;65.43
40920;BME280;26652;50.280;19.026;2023-08-01T01:32:46;97427.81;;;20.64;65.69
40920;BME280;26652;50.280;19.026;2023-08-01T01:34:47;97435.03;;;20.67;64.97
40920;BME280;26652;50.280;19.026;2023-08-01T01:36:48;97421.91;;;20.53;65.39
40920;BME280;26652;50.280;19.026;2023-08-01T01:38:48;97414.94;;;20.48;65.56
40920;BME280;26652;50.280;19.026;2023-08-01T01:40:49;97423.72;;;20.52;65.81
40920;BME280;26652;50.280;19.026;2023-08-01T01:42:49;97403.84;;;20.43;65.74
40920;BME280;26652;50.280;19.026;2023-08-01T01:44:50;97402.81;;;20.44;66.55
40920;BME280;26652;50.280;19.026;2023-08-01T01:46:51;97389.13;;;20.33;66.21
40920;BME280;26652;50.280;19.026;2023-08-01T01:48:52;97410.81;;;20.47;66.83
40920;BME280;26652;50.280;19.026;2023-08-01T01:50:52;97378.34;;;20.21;66.70
40920;BME280;26652;50.280;19.026;2023-08-01T01:52:53;97385.28;;;20.31;66.70
40920;BME280;26652;50.280;19.026;2023-08-01T01:54:53;97393.56;;;20.22;66.79
40920;BME280;26652;50.280;19.026;2023-08-01T01:56:54;97392.28;;;20.20;67.25
40920;BME280;26652;50.280;19.026;2023-08-01T01:58:55;97382.28;;;20.03;67.64
40920;BME280;26652;50.280;19.026;2023-08-01T02:00:55;97398.00;;;20.12;67.93
40920;BME280;26652;50.280;19.026;2023-08-01T02:02:56;97385.88;;;20.12;67.50
40920;BME280;26652;50.280;19.026;2023-08-01T02:04:57;97377.81;;;20.19;67.68
40920;BME280;26652;50.280;19.026;2023-08-01T02:06:57;97385.59;;;20.19;67.00
40920;BME280;26652;50.280;19.026;2023-08-01T02:08:58;97375.00;;;20.15;67.19
40920;BME280;26652;50.280;19.026;2023-08-01T02:10:59;97378.16;;;20.02;67.46
40920;BME280;26652;50.280;19.026;2023-08-01T02:12:59;97395.66;;;20.20;67.43
40920;BME280;26652;50.280;19.026;2023-08-01T02:15:01;97382.72;;;20.20;66.54
40920;BME280;26652;50.280;19.026;2023-08-01T02:17:02;97355.44;;;19.94;67.06
40920;BME280;26652;50.280;19.026;2023-08-01T02:19:02;97367.28;;;20.05;67.14
40920;BME280;26652;50.280;19.026;2023-08-01T02:21:03;97363.19;;;19.99;67.35
40920;BME280;26652;50.280;19.026;2023-08-01T02:23:03;97363.13;;;20.09;67.21
40920;BME280;26652;50.280;19.026;2023-08-01T02:25:05;97365.72;;;20.09;66.81
40920;BME280;26652;50.280;19.026;2023-08-01T02:27:05;97363.91;;;20.10;67.18
40920;BME280;26652;50.280;19.026;2023-08-01T02:29:06;97371.66;;;20.10;66.92
40920;BME280;26652;50.280;19.026;2023-08-01T02:31:06;97364.66;;;20.15;67.29
40920;BME280;26652;50.280;19.026;2023-08-01T02:33:07;97355.69;;;19.98;67.54
40920;BME280;26652;50.280;19.026;2023-08-01T02:35:08;97369.53;;;20.22;66.91
40920;BME280;26652;50.280;19.026;2023-08-01T02:37:09;97352.34;;;19.97;67.19
40920;BME280;26652;50.280;19.026;2023-08-01T02:39:09;97354.16;;;19.91;68.02
40920;BME280;26652;50.280;19.026;2023-08-01T02:41:10;97365.75;;;19.99;67.12
40920;BME280;26652;50.280;19.026;2023-08-01T02:43:11;97339.19;;;19.88;68.17
40920;BME280;26652;50.280;19.026;2023-08-01T02:45:12;97343.34;;;19.84;68.03
40920;BME280;26652;50.280;19.026;2023-08-01T02:47:12;97340.19;;;19.98;67.58
40920;BME280;26652;50.280;19.026;2023-08-01T02:49:13;97338.69;;;19.81;68.09
40920;BME280;26652;50.280;19.026;2023-08-01T02:51:13;97338.72;;;19.76;68.21
40920;BME280;26652;50.280;19.026;2023-08-01T02:53:14;97336.44;;;19.70;68.52
40920;BME280;26652;50.280;19.026;2023-08-01T02:55:15;97330.75;;;19.68;68.41
40920;BME280;26652;50.280;19.026;2023-08-01T02:57:16;97326.56;;;19.77;68.15
40920;BME280;26652;50.280;19.026;2023-08-01T02:59:16;97349.00;;;19.91;67.76
40920;BME280;26652;50.280;19.026;2023-08-01T03:01:18;97358.00;;;19.99;67.63
40920;BME280;26652;50.280;19.026;2023-08-01T03:03:19;97350.81;;;19.91;68.00
40920;BME280;26652;50.280;19.026;2023-08-01T03:05:20;97333.78;;;19.85;67.58
40920;BME280;26652;50.280;19.026;2023-08-01T03:07:20;97332.22;;;19.84;67.67
40920;BME280;26652;50.280;19.026;2023-08-01T03:09:21;97330.69;;;19.78;68.33
40920;BME280;26652;50.280;19.026;2023-08-01T03:11:21;97322.44;;;19.81;67.50
40920;BME280;26652;50.280;19.026;2023-08-01T03:13:22;97326.03;;;19.85;67.75
40920;BME280;26652;50.280;19.026;2023-08-01T03:15:23;97330.38;;;20.00;66.87
40920;BME280;26652;50.280;19.026;2023-08-01T03:17:24;97335.72;;;20.13;66.55
40920;BME280;26652;50.280;19.026;2023-08-01T03:19:24;97321.03;;;20.09;66.07
40920;BME280;26652;50.280;19.026;2023-08-01T03:21:25;97319.47;;;20.08;66.33
40920;BME280;26652;50.280;19.026;2023-08-01T03:23:26;97305.50;;;20.14;65.89
40920;BME280;26652;50.280;19.026;2023-08-01T03:25:27;97309.59;;;20.20;65.55
40920;BME280;26652;50.280;19.026;2023-08-01T03:27:28;97318.13;;;20.20;65.94
40920;BME280;26652;50.280;19.026;2023-08-01T03:29:29;97318.41;;;20.19;65.31
40920;BME280;26652;50.280;19.026;2023-08-01T03:31:29;97309.59;;;20.20;65.31
40920;BME280;26652;50.280;19.026;2023-08-01T03:33:32;97293.09;;;20.16;64.66
40920;BME280;26652;50.280;19.026;2023-08-01T03:35:33;97289.47;;;20.17;64.75
40920;BME280;26652;50.280;19.026;2023-08-01T03:37:34;97295.34;;;20.28;64.12
40920;BME280;26652;50.280;19.026;2023-08-01T03:39:34;97296.88;;;20.34;63.61
40920;BME280;26652;50.280;19.026;2023-08-01T03:41:36;97303.31;;;20.36;64.05
40920;BME280;26652;50.280;19.026;2023-08-01T03:43:37;97311.06;;;20.41;63.94
40920;BME280;26652;50.280;19.026;2023-08-01T03:45:38;97315.91;;;20.53;63.53
40920;BME280;26652;50.280;19.026;2023-08-01T03:47:38;97303.78;;;20.48;63.13
40920;BME280;26652;50.280;19.026;2023-08-01T03:49:39;97296.75;;;20.54;62.92
40920;BME280;26652;50.280;19.026;2023-08-01T03:51:40;97299.81;;;20.61;62.67
40920;BME280;26652;50.280;19.026;2023-08-01T03:53:41;97299.28;;;20.64;63.11
40920;BME280;26652;50.280;19.026;2023-08-01T03:55:43;97298.25;;;20.65;62.80
40920;BME280;26652;50.280;19.026;2023-08-01T03:57:44;97311.63;;;20.72;62.63
40920;BME280;26652;50.280;19.026;2023-08-01T03:59:46;97306.78;;;20.66;62.93
40920;BME280;26652;50.280;19.026;2023-08-01T04:01:47;97299.28;;;20.64;63.40
40920;BME280;26652;50.280;19.026;2023-08-01T04:03:47;97301.88;;;20.64;62.53
40920;BME280;26652;50.280;19.026;2023-08-01T04:05:48;97289.44;;;20.66;62.60
40920;BME280;26652;50.280;19.026;2023-08-01T04:07:49;97287.41;;;20.63;62.14
40920;BME280;26652;50.280;19.026;2023-08-01T04:09:49;97302.59;;;20.70;62.98
40920;BME280;26652;50.280;19.026;2023-08-01T04:11:50;97288.41;;;20.67;62.41
40920;BME280;26652;50.280;19.026;2023-08-01T04:13:51;97296.25;;;20.86;61.94
40920;BME280;26652;50.280;19.026;2023-08-01T04:15:51;97313.75;;;20.94;62.51
40920;BME280;26652;50.280;19.026;2023-08-01T04:17:52;97311.22;;;20.89;62.00
40920;BME280;26652;50.280;19.026;2023-08-01T04:19:53;97301.66;;;20.89;62.03
40920;BME280;26652;50.280;19.026;2023-08-01T04:21:53;97293.16;;;20.84;62.70
40920;BME280;26652;50.280;19.026;2023-08-01T04:23:54;97313.44;;;21.01;62.66
40920;BME280;26652;50.280;19.026;2023-08-01T04:25:55;97288.13;;;20.98;62.57
40920;BME280;26652;50.280;19.026;2023-08-01T04:27:55;97276.22;;;20.97;62.84
40920;BME280;26652;50.280;19.026;2023-08-01T04:29:56;97293.66;;;21.15;62.58
40920;BME280;26652;50.280;19.026;2023-08-01T04:31:56;97270.63;;;21.13;62.44
40920;BME280;26652;50.280;19.026;2023-08-01T04:33:57;97283.59;;;21.13;62.84
40920;BME280;26652;50.280;19.026;2023-08-01T04:35:58;97285.34;;;21.18;63.44
40920;BME280;26652;50.280;19.026;2023-08-01T04:37:59;97274.53;;;21.11;63.36
40920;BME280;26652;50.280;19.026;2023-08-01T04:39:59;97284.00;;;21.26;62.88
40920;BME280;26652;50.280;19.026;2023-08-01T04:42:00;97295.66;;;21.52;62.63
40920;BME280;26652;50.280;19.026;2023-08-01T04:44:01;97276.09;;;21.41;62.75
40920;BME280;26652;50.280;19.026;2023-08-01T04:46:01;97283.03;;;21.45;62.62
40920;BME280;26652;50.280;19.026;2023-08-01T04:48:02;97273.22;;;21.42;62.84
40920;BME280;26652;50.280;19.026;2023-08-01T04:50:03;97275.03;;;21.42;62.73
40920;BME280;26652;50.280;19.026;2023-08-01T04:52:04;97289.69;;;21.94;61.19
40920;BME280;26652;50.280;19.026;2023-08-01T04:54:05;97283.44;;;22.38;59.97
40920;BME280;26652;50.280;19.026;2023-08-01T04:56:06;97277.91;;;22.77;58.26
40920;BME280;26652;50.280;19.026;2023-08-01T04:58:06;97279.47;;;22.92;58.50
40920;BME280;26652;50.280;19.026;2023-08-01T05:00:08;97282.19;;;22.87;58.42
40920;BME280;26652;50.280;19.026;2023-08-01T05:02:10;97277.00;;;22.68;59.06
40920;BME280;26652;50.280;19.026;2023-08-01T05:04:10;97281.19;;;22.50;59.79
40920;BME280;26652;50.280;19.026;2023-08-01T05:06:11;97274.59;;;22.39;60.79
40920;BME280;26652;50.280;19.026;2023-08-01T05:08:12;97280.34;;;22.36;60.43
40920;BME280;26652;50.280;19.026;2023-08-01T05:10:12;97280.97;;;22.28;60.65
40920;BME280;26652;50.280;19.026;2023-08-01T05:12:13;97279.72;;;22.06;60.38
40920;BME280;26652;50.280;19.026;2023-08-01T05:14:14;97293.00;;;22.00;60.95
40920;BME280;26652;50.280;19.026;2023-08-01T05:16:14;97288.16;;;21.74;62.51
40920;BME280;26652;50.280;19.026;2023-08-01T05:18:16;97278.91;;;21.68;62.27
40920;BME280;26652;50.280;19.026;2023-08-01T05:20:17;97277.06;;;21.69;62.87
40920;BME280;26652;50.280;19.026;2023-08-01T05:22:17;97281.84;;;21.80;63.38
40920;BME280;26652;50.280;19.026;2023-08-01T05:24:18;97288.31;;;21.83;63.13
40920;BME280;26652;50.280;19.026;2023-08-01T05:26:19;97300.50;;;21.82;63.81
40920;BME280;26652;50.280;19.026;2023-08-01T05:28:19;97283.56;;;21.66;63.13
40920;BME280;26652;50.280;19.026;2023-08-01T05:30:20;97278.34;;;21.71;63.84
40920;BME280;26652;50.280;19.026;2023-08-01T05:32:21;97285.63;;;21.69;64.27
40920;BME280;26652;50.280;19.026;2023-08-01T05:34:21;97284.13;;;21.63;64.34
40920;BME280;26652;50.280;19.026;2023-08-01T05:36:22;97271.78;;;21.55;63.62
40920;BME280;26652;50.280;19.026;2023-08-01T05:38:23;97272.56;;;21.56;63.84
40920;BME280;26652;50.280;19.026;2023-08-01T05:40:23;97292.00;;;21.53;63.94
40920;BME280;26652;50.280;19.026;2023-08-01T05:42:24;97280.78;;;21.39;64.78
40920;BME280;26652;50.280;19.026;2023-08-01T05:44:25;97286.34;;;21.51;64.59
40920;BME280;26652;50.280;19.026;2023-08-01T05:46:25;97268.75;;;21.24;65.56
40920;BME280;26652;50.280;19.026;2023-08-01T05:48:26;97275.97;;;21.27;65.31
40920;BME280;26652;50.280;19.026;2023-08-01T05:50:27;97280.31;;;21.32;65.87
40920;BME280;26652;50.280;19.026;2023-08-01T05:52:27;97278.34;;;21.24;66.08
40920;BME280;26652;50.280;19.026;2023-08-01T05:54:28;97267.88;;;21.34;66.19
40920;BME280;26652;50.280;19.026;2023-08-01T05:56:28;97279.94;;;21.43;66.56
40920;BME280;26652;50.280;19.026;2023-08-01T05:58:30;97283.69;;;21.56;66.60
40920;BME280;26652;50.280;19.026;2023-08-01T06:00:31;97273.44;;;21.46;66.55
40920;BME280;26652;50.280;19.026;2023-08-01T06:02:32;97300.38;;;21.69;66.75
40920;BME280;26652;50.280;19.026;2023-08-01T06:04:32;97285.56;;;21.50;66.43
40920;BME280;26652;50.280;19.026;2023-08-01T06:06:33;97287.00;;;21.62;66.92
40920;BME280;26652;50.280;19.026;2023-08-01T06:08:34;97296.16;;;21.54;67.13
40920;BME280;26652;50.280;19.026;2023-08-01T06:10:35;97298.72;;;21.54;67.84
40920;BME280;26652;50.280;19.026;2023-08-01T06:12:36;97289.03;;;21.41;68.51
40920;BME280;26652;50.280;19.026;2023-08-01T06:14:37;97285.50;;;21.32;69.12
40920;BME280;26652;50.280;19.026;2023-08-01T06:16:38;97279.06;;;21.29;69.37
40920;BME280;26652;50.280;19.026;2023-08-01T06:18:38;97271.28;;;21.29;69.54
40920;BME280;26652;50.280;19.026;2023-08-01T06:20:39;97257.94;;;21.17;69.58
40920;BME280;26652;50.280;19.026;2023-08-01T06:22:41;97262.81;;;21.18;70.12
40920;BME280;26652;50.280;19.026;2023-08-01T06:24:42;97251.44;;;21.19;70.10
40920;BME280;26652;50.280;19.026;2023-08-01T06:26:42;97266.78;;;21.40;70.56
40920;BME280;26652;50.280;19.026;2023-08-01T06:28:43;97251.09;;;21.31;69.71
40920;BME280;26652;50.280;19.026;2023-08-01T06:30:45;97250.81;;;21.33;69.83
40920;BME280;26652;50.280;19.026;2023-08-01T06:32:46;97246.91;;;21.35;69.44
40920;BME280;26652;50.280;19.026;2023-08-01T06:34:46;97256.41;;;21.40;69.55
40920;BME280;26652;50.280;19.026;2023-08-01T06:36:47;97250.84;;;21.28;69.90
40920;BME280;26652;50.280;19.026;2023-08-01T06:38:48;97247.50;;;21.27;70.40
40920;BME280;26652;50.280;19.026;2023-08-01T06:40:49;97246.41;;;21.33;70.62
40920;BME280;26652;50.280;19.026;2023-08-01T06:42:49;97251.97;;;21.45;70.18
40920;BME280;26652;50.280;19.026;2023-08-01T06:44:50;97231.81;;;21.42;70.38
40920;BME280;26652;50.280;19.026;2023-08-01T06:46:51;97241.97;;;21.58;69.59
40920;BME280;26652;50.280;19.026;2023-08-01T06:48:51;97234.91;;;21.63;69.20
40920;BME280;26652;50.280;19.026;2023-08-01T06:50:52;97246.06;;;21.82;69.03
40920;BME280;26652;50.280;19.026;2023-08-01T06:52:53;97234.34;;;21.85;69.43
40920;BME280;26652;50.280;19.026;2023-08-01T06:54:53;97228.78;;;21.78;68.68
40920;BME280;26652;50.280;19.026;2023-08-01T06:56:54;97234.34;;;21.85;69.23
40920;BME280;26652;50.280;19.026;2023-08-01T06:58:55;97228.13;;;21.86;69.06
40920;BME280;26652;50.280;19.026;2023-08-01T07:00:55;97239.56;;;22.04;69.07
40920;BME280;26652;50.280;19.026;2023-08-01T07:02:56;97240.84;;;22.06;68.50
40920;BME280;26652;50.280;19.026;2023-08-01T07:04:57;97243.78;;;22.18;68.31
40920;BME280;26652;50.280;19.026;2023-08-01T07:06:57;97233.00;;;22.11;68.56
40920;BME280;26652;50.280;19.026;2023-08-01T07:08:58;97232.34;;;22.19;68.92
40920;BME280;26652;50.280;19.026;2023-08-01T07:10:59;97239.66;;;22.17;68.47
40920;BME280;26652;50.280;19.026;2023-08-01T07:13:00;97230.53;;;22.20;68.32
40920;BME280;26652;50.280;19.026;2023-08-01T07:15:04;97233.53;;;22.27;68.39
40920;BME280;26652;50.280;19.026;2023-08-01T07:17:05;97242.50;;;22.35;68.26
40920;BME280;26652;50.280;19.026;2023-08-01T07:19:06;97219.44;;;22.33;67.68
40920;BME280;26652;50.280;19.026;2023-08-01T07:21:06;97221.31;;;22.46;66.84
40920;BME280;26652;50.280;19.026;2023-08-01T07:23:07;97218.13;;;22.68;66.80
40920;BME280;26652;50.280;19.026;2023-08-01T07:25:08;97212.06;;;22.73;66.83
40920;BME280;26652;50.280;19.026;2023-08-01T07:27:09;97213.19;;;22.86;65.98
40920;BME280;26652;50.280;19.026;2023-08-01T07:29:09;97203.66;;;22.95;65.54
40920;BME280;26652;50.280;19.026;2023-08-01T07:31:11;97207.69;;;23.01;65.97
40920;BME280;26652;50.280;19.026;2023-08-01T07:33:12;97200.09;;;22.91;66.19
40920;BME280;26652;50.280;19.026;2023-08-01T07:35:13;97210.56;;;22.99;65.70
40920;BME280;26652;50.280;19.026;2023-08-01T07:37:14;97199.50;;;22.94;65.88
40920;BME280;26652;50.280;19.026;2023-08-01T07:39:17;97212.97;;;22.96;65.51
40920;BME280;26652;50.280;19.026;2023-08-01T07:41:18;97216.53;;;22.86;65.46
40920;BME280;26652;50.280;19.026;2023-08-01T07:43:19;97204.91;;;22.97;66.05
40920;BME280;26652;50.280;19.026;2023-08-01T07:45:19;97221.03;;;22.94;65.55
40920;BME280;26652;50.280;19.026;2023-08-01T07:47:20;97212.31;;;23.04;65.80
40920;BME280;26652;50.280;19.026;2023-08-01T07:49:21;97216.63;;;23.08;66.99
40920;BME280;26652;50.280;19.026;2023-08-01T07:51:21;97229.63;;;23.22;66.54
40920;BME280;26652;50.280;19.026;2023-08-01T07:53:22;97226.75;;;23.24;67.54
40920;BME280;26652;50.280;19.026;2023-08-01T07:55:23;97224.34;;;23.27;67.00
40920;BME280;26652;50.280;19.026;2023-08-01T07:57:24;97221.75;;;23.27;68.54
40920;BME280;26652;50.280;19.026;2023-08-01T07:59:24;97215.19;;;23.30;68.28
40920;BME280;26652;50.280;19.026;2023-08-01T08:01:25;97223.47;;;23.32;70.11
40920;BME280;26652;50.280;19.026;2023-08-01T08:03:26;97225.59;;;23.16;69.14
40920;BME280;26652;50.280;19.026;2023-08-01T08:05:26;97226.22;;;22.94;70.85
40920;BME280;26652;50.280;19.026;2023-08-01T08:07:27;97231.06;;;22.87;72.60
40920;BME280;26652;50.280;19.026;2023-08-01T08:09:28;97239.50;;;22.79;72.75
40920;BME280;26652;50.280;19.026;2023-08-01T08:11:28;97220.06;;;22.76;74.97
40920;BME280;26652;50.280;19.026;2023-08-01T08:13:29;97221.59;;;22.77;73.52
40920;BME280;26652;50.280;19.026;2023-08-01T08:15:30;97226.16;;;22.86;73.57
40920;BME280;26652;50.280;19.026;2023-08-01T08:17:34;97228.25;;;22.97;76.05
40920;BME280;26652;50.280;19.026;2023-08-01T08:19:35;97212.19;;;22.95;74.97
40920;BME280;26652;50.280;19.026;2023-08-01T08:21:36;97220.19;;;22.99;74.18
40920;BME280;26652;50.280;19.026;2023-08-01T08:23:37;97204.22;;;23.05;73.24
40920;BME280;26652;50.280;19.026;2023-08-01T08:25:38;97203.56;;;23.13;74.28
40920;BME280;26652;50.280;19.026;2023-08-01T08:27:39;97192.97;;;23.10;71.92
40920;BME280;26652;50.280;19.026;2023-08-01T08:29:39;97209.91;;;23.21;72.65
40920;BME280;26652;50.280;19.026;2023-08-01T08:31:40;97197.78;;;23.16;72.84
40920;BME280;26652;50.280;19.026;2023-08-01T08:33:41;97197.03;;;23.30;74.41
40920;BME280;26652;50.280;19.026;2023-08-01T08:35:41;97215.28;;;23.38;71.64
40920;BME280;26652;50.280;19.026;2023-08-01T08:37:42;97211.34;;;23.27;73.38
40920;BME280;26652;50.280;19.026;2023-08-01T08:39:43;97205.69;;;23.25;71.02
40920;BME280;26652;50.280;19.026;2023-08-01T08:41:46;97200.38;;;23.03;72.69
40920;BME280;26652;50.280;19.026;2023-08-01T08:43:48;97202.50;;;23.01;72.33
40920;BME280;26652;50.280;19.026;2023-08-01T08:45:51;97216.81;;;22.98;72.13
40920;BME280;26652;50.280;19.026;2023-08-01T08:47:55;97202.69;;;22.91;74.11
40920;BME280;26652;50.280;19.026;2023-08-01T08:50:00;97196.44;;;22.92;74.40
40920;BME280;26652;50.280;19.026;2023-08-01T08:52:02;97195.00;;;22.86;75.58
40920;BME280;26652;50.280;19.026;2023-08-01T08:54:04;97207.97;;;23.13;75.03
40920;BME280;26652;50.280;19.026;2023-08-01T08:56:08;97204.72;;;23.21;75.08
40920;BME280;26652;50.280;19.026;2023-08-01T08:58:08;97202.22;;;23.16;76.72
40920;BME280;26652;50.280;19.026;2023-08-01T09:00:10;97203.47;;;23.19;73.97
40920;BME280;26652;50.280;19.026;2023-08-01T09:02:12;97190.97;;;23.07;74.83
40920;BME280;26652;50.280;19.026;2023-08-01T09:04:15;97185.78;;;23.07;74.33
40920;BME280;26652;50.280;19.026;2023-08-01T09:06:17;97198.47;;;23.22;73.83
40920;BME280;26652;50.280;19.026;2023-08-01T09:08:20;97191.16;;;23.24;73.18
40920;BME280;26652;50.280;19.026;2023-08-01T09:10:21;97197.03;;;23.30;73.63
40920;BME280;26652;50.280;19.026;2023-08-01T09:12:22;97190.56;;;23.27;74.51
40920;BME280;26652;50.280;19.026;2023-08-01T09:14:22;97184.81;;;23.30;75.39
40920;BME280;26652;50.280;19.026;2023-08-01T09:16:23;97190.00;;;23.30;75.12
40920;BME280;26652;50.280;19.026;2023-08-01T09:18:24;97178.19;;;23.10;73.70
40920;BME280;26652;50.280;19.026;2023-08-01T09:20:25;97187.41;;;23.16;73.93
40920;BME280;26652;50.280;19.026;2023-08-01T09:22:25;97168.09;;;23.09;75.62
40920;BME280;26652;50.280;19.026;2023-08-01T09:24:26;97181.34;;;23.21;76.71
40920;BME280;26652;50.280;19.026;2023-08-01T09:26:29;97186.81;;;23.33;77.57
40920;BME280;26652;50.280;19.026;2023-08-01T09:28:30;97160.56;;;23.21;75.56
40920;BME280;26652;50.280;19.026;2023-08-01T09:30:31;97176.63;;;23.37;77.73
40920;BME280;26652;50.280;19.026;2023-08-01T09:32:32;97165.09;;;23.29;78.17
40920;BME280;26652;50.280;19.026;2023-08-01T09:34:32;97164.91;;;23.26;76.21
40920;BME280;26652;50.280;19.026;2023-08-01T09:36:33;97155.00;;;23.14;77.89
40920;BME280;26652;50.280;19.026;2023-08-01T09:38:36;97156.44;;;23.06;77.58
40920;BME280;26652;50.280;19.026;2023-08-01T09:40:38;97153.75;;;22.98;78.94
40920;BME280;26652;50.280;19.026;2023-08-01T09:42:43;97158.66;;;23.13;79.90
40920;BME280;26652;50.280;19.026;2023-08-01T09:44:45;97161.06;;;23.23;79.01
40920;BME280;26652;50.280;19.026;2023-08-01T09:47:00;97146.63;;;23.17;78.85
40920;BME280;26652;50.280;19.026;2023-08-01T09:49:08;97145.94;;;23.25;78.42
40920;BME280;26652;50.280;19.026;2023-08-01T09:51:11;97130.00;;;23.18;77.42
40920;BME280;26652;50.280;19.026;2023-08-01T09:53:12;97152.66;;;23.40;78.22
40920;BME280;26652;50.280;19.026;2023-08-01T09:55:13;97130.63;;;23.37;77.91
40920;BME280;26652;50.280;19.026;2023-08-01T09:57:14;97134.38;;;23.45;79.87
40920;BME280;26652;50.280;19.026;2023-08-01T09:59:22;97121.41;;;23.45;79.19
40920;BME280;26652;50.280;19.026;2023-08-01T10:01:24;97126.22;;;23.38;78.41
40920;BME280;26652;50.280;19.026;2023-08-01T10:03:27;97120.06;;;23.34;78.36
40920;BME280;26652;50.280;19.026;2023-08-01T10:05:29;97124.78;;;23.32;76.77
40920;BME280;26652;50.280;19.026;2023-08-01T10:07:32;97124.78;;;23.32;76.62
40920;BME280;26652;50.280;19.026;2023-08-01T10:09:34;97119.69;;;23.27;77.71
40920;BME280;26652;50.280;19.026;2023-08-01T10:11:36;97116.25;;;23.17;75.63
40920;BME280;26652;50.280;19.026;2023-08-01T10:13:38;97109.63;;;23.11;76.66
40920;BME280;26652;50.280;19.026;2023-08-01T10:15:40;97115.88;;;23.10;75.41
40920;BME280;26652;50.280;19.026;2023-08-01T10:17:41;97119.81;;;23.22;77.38
40920;BME280;26652;50.280;19.026;2023-08-01T10:19:42;97111.25;;;23.21;76.59
40920;BME280;26652;50.280;19.026;2023-08-01T10:21:44;97126.13;;;23.29;75.72
40920;BME280;26652;50.280;19.026;2023-08-01T10:23:46;97109.38;;;23.35;76.00
40920;BME280;26652;50.280;19.026;2023-08-01T10:25:47;97103.84;;;23.14;74.99
40920;BME280;26652;50.280;19.026;2023-08-01T10:28:01;97113.75;;;23.12;75.40
40920;BME280;26652;50.280;19.026;2023-08-01T10:30:04;97109.81;;;23.01;77.35
40920;BME280;26652;50.280;19.026;2023-08-01T10:32:07;97126.66;;;23.04;75.37